Time;durP1;ratioP1;P1;durP2;ratioP2;P2;SDS_P1;SDS_P2;PMS_P1;PMS_P2;Temp;Humidity;BMP_temperature;BMP_pressure;BME280_temperature;BME280_humidity;BME280_pressure;Samples;Min_cycle;Max_cycle;Signal;HPM_P1;HPM_P2
2023/01/24 00:00:21;;;;;;;3.53;0.60;;;26.50;99.90;;;;;;5025223;28;20190;-77
2023/01/24 00:02:53;;;;;;;2.33;0.70;;;26.60;99.90;;;;;;5024324;28;20386;-76
2023/01/24 00:05:24;;;;;;;3.10;0.80;;;26.80;99.90;;;;;;5025983;28;20202;-76
2023/01/24 00:07:55;;;;;;;2.72;0.60;;;26.80;99.90;;;;;;5025672;28;20202;-77
2023/01/24 00:10:26;;;;;;;6.13;0.90;;;26.90;99.90;;;;;;5024682;28;20226;-77
2023/01/24 00:12:57;;;;;;;2.85;0.73;;;26.90;99.90;;;;;;5026538;28;21377;-76
2023/01/24 00:15:31;;;;;;;4.47;0.90;;;26.90;99.90;;;;;;5026314;28;20194;-76
2023/01/24 00:18:02;;;;;;;1.88;0.70;;;26.70;99.90;;;;;;5023837;28;20669;-77
2023/01/24 00:20:33;;;;;;;1.67;0.60;;;26.90;99.90;;;;;;5025046;28;20625;-77
2023/01/24 00:23:04;;;;;;;3.97;0.70;;;27.00;99.90;;;;;;5026632;28;20952;-77
2023/01/24 00:25:35;;;;;;;4.60;0.80;;;27.10;99.90;;;;;;5023988;28;20733;-76
2023/01/24 00:28:06;;;;;;;3.80;0.55;;;27.30;99.90;;;;;;5025736;28;20201;-76
2023/01/24 00:30:39;;;;;;;1.95;0.60;;;27.20;99.90;;;;;;5024676;28;20277;-76
2023/01/24 00:33:10;;;;;;;6.00;0.70;;;27.00;99.90;;;;;;5025301;28;20567;-76
2023/01/24 00:35:41;;;;;;;3.75;0.70;;;26.90;99.90;;;;;;5023489;28;20194;-78
2023/01/24 00:38:18;;;;;;;5.28;0.90;;;27.10;99.90;;;;;;5025097;28;20198;-79
2023/01/24 00:40:55;;;;;;;3.85;0.80;;;27.30;99.90;;;;;;5023737;28;20210;-77
2023/01/24 00:43:26;;;;;;;3.50;0.60;;;27.40;99.90;;;;;;5019864;28;20783;-76
2023/01/24 00:46:03;;;;;;;2.95;0.70;;;27.40;99.90;;;;;;5019693;28;20260;-76
2023/01/24 00:48:34;;;;;;;4.88;0.80;;;27.50;99.90;;;;;;5018497;28;20321;-76
2023/01/24 00:51:06;;;;;;;4.00;0.70;;;27.70;99.90;;;;;;5020658;28;20657;-77
2023/01/24 00:53:37;;;;;;;4.47;0.85;;;27.80;99.90;;;;;;5024042;28;20318;-77
2023/01/24 00:56:09;;;;;;;2.30;0.70;;;27.70;99.90;;;;;;5023341;28;20662;-77
2023/01/24 00:58:43;;;;;;;5.95;0.88;;;27.50;99.90;;;;;;5018053;28;20272;-77
2023/01/24 01:01:16;;;;;;;2.80;0.68;;;27.70;99.90;;;;;;5024719;28;20207;-77
2023/01/24 01:03:47;;;;;;;2.70;0.68;;;27.90;99.90;;;;;;5021174;28;20226;-77
2023/01/24 01:06:19;;;;;;;4.80;0.80;;;27.90;99.90;;;;;;5023934;28;20324;-76
2023/01/24 01:08:50;;;;;;;2.45;0.80;;;27.60;99.90;;;;;;5021751;28;20225;-76
2023/01/24 01:11:21;;;;;;;3.10;0.80;;;27.20;99.90;;;;;;5022363;28;20209;-78
2023/01/24 01:13:52;;;;;;;3.63;0.70;;;27.40;99.90;;;;;;5025271;28;20364;-77
2023/01/24 01:16:25;;;;;;;4.10;0.90;;;27.50;99.90;;;;;;5022872;28;20190;-76
2023/01/24 01:18:58;;;;;;;4.32;0.70;;;27.60;99.90;;;;;;5022289;28;20276;-76
2023/01/24 01:21:29;;;;;;;2.45;0.50;;;27.70;99.90;;;;;;5021344;28;20202;-77
2023/01/24 01:24:00;;;;;;;2.80;0.70;;;27.70;99.90;;;;;;5022786;28;20657;-78
2023/01/24 01:26:32;;;;;;;2.00;0.60;;;27.90;99.90;;;;;;5023479;28;20609;-77
2023/01/24 01:29:03;;;;;;;3.45;0.73;;;27.90;99.90;;;;;;5023515;28;20241;-77
2023/01/24 01:31:36;;;;;;;7.00;0.85;;;28.00;99.90;;;;;;5023325;28;20204;-77
2023/01/24 01:34:07;;;;;;;3.75;0.70;;;28.10;99.90;;;;;;5023794;28;20218;-77
2023/01/24 01:36:39;;;;;;;2.45;1.10;;;28.20;99.90;;;;;;5020356;28;20205;-77
2023/01/24 01:39:10;;;;;;;2.20;0.70;;;28.40;99.90;;;;;;5023571;28;20202;-78
2023/01/24 01:41:41;;;;;;;3.42;0.90;;;28.40;99.90;;;;;;5024203;28;20190;-77
2023/01/24 01:44:46;;;;;;;5.30;1.10;;;28.60;99.90;;;;;;5024212;28;20272;-77
2023/01/24 01:47:29;;;;;;;4.68;0.90;;;28.70;99.90;;;;;;5023313;28;20284;-77
2023/01/24 01:50:04;;;;;;;6.18;1.08;;;28.70;99.90;;;;;;5026244;28;20677;-76
2023/01/24 01:52:39;;;;;;;2.22;0.70;;;28.50;99.90;;;;;;5024317;28;20243;-77
2023/01/24 01:55:15;;;;;;;5.15;0.95;;;28.50;99.90;;;;;;5024805;28;20221;-77
2023/01/24 01:57:48;;;;;;;4.72;1.00;;;28.50;99.90;;;;;;5025262;28;20193;-77
2023/01/24 02:00:21;;;;;;;3.42;0.85;;;28.30;99.90;;;;;;5021222;28;20607;-77
2023/01/24 02:03:37;;;;;;;1.85;0.75;;;28.40;99.90;;;;;;5021830;28;20209;-77
2023/01/24 02:05:52;;;;;;;4.40;0.80;;;28.50;99.90;;;;;;5023306;28;20380;-77
2023/01/24 02:08:25;;;;;;;3.83;0.77;;;28.60;99.90;;;;;;5020915;28;20638;-77
2023/01/24 02:13:46;;;;;;;3.60;0.93;;;28.90;99.90;;;;;;5021252;28;20279;-77
2023/01/24 02:16:16;;;;;;;2.70;0.93;;;28.90;99.90;;;;;;5021377;28;20205;-76
2023/01/24 02:18:49;;;;;;;2.85;0.90;;;29.00;99.90;;;;;;5023576;28;20288;-78
2023/01/24 02:21:20;;;;;;;2.33;0.82;;;29.10;99.90;;;;;;5023239;28;20198;-77
2023/01/24 02:23:57;;;;;;;5.03;1.10;;;29.20;99.90;;;;;;5025943;28;20293;-77
2023/01/24 02:26:33;;;;;;;2.38;0.90;;;29.10;99.90;;;;;;5021030;28;20671;-79
2023/01/24 02:29:08;;;;;;;3.83;1.02;;;29.00;99.90;;;;;;5025443;28;20300;-76
2023/01/24 02:31:57;;;;;;;4.35;1.05;;;28.90;99.90;;;;;;5020851;28;20618;-76
2023/01/24 02:34:29;;;;;;;3.83;0.90;;;29.00;99.90;;;;;;5023031;28;20230;-78
2023/01/24 02:37:03;;;;;;;4.53;1.00;;;28.90;99.90;;;;;;5024315;28;20198;-76
2023/01/24 02:39:37;;;;;;;5.57;1.00;;;28.60;99.90;;;;;;5022221;28;21096;-78
2023/01/24 02:42:15;;;;;;;2.92;1.00;;;28.60;99.90;;;;;;5024137;28;20202;-77
2023/01/24 02:44:53;;;;;;;4.63;1.00;;;28.40;99.90;;;;;;5021504;28;20193;-77
2023/01/24 02:47:24;;;;;;;3.75;1.08;;;28.50;99.90;;;;;;5024845;28;20200;-76
2023/01/24 02:49:55;;;;;;;3.90;1.00;;;28.60;99.90;;;;;;5021831;28;20206;-78
2023/01/24 02:55:13;;;;;;;3.75;1.15;;;28.40;99.90;;;;;;5021937;28;20224;-77
2023/01/24 03:00:33;;;;;;;2.55;1.00;;;28.20;99.90;;;;;;5002263;28;20280;-77
2023/01/24 03:03:04;;;;;;;3.42;0.93;;;28.20;99.90;;;;;;5023602;28;20194;-77
2023/01/24 03:05:56;;;;;;;4.47;0.90;;;28.10;99.90;;;;;;5024984;28;20285;-77
2023/01/24 03:08:28;;;;;;;3.65;1.13;;;28.10;99.90;;;;;;5020234;28;20658;-77
2023/01/24 03:10:59;;;;;;;2.58;1.00;;;28.00;99.90;;;;;;5021998;28;20253;-78
2023/01/24 03:35:55;;;;;;;6.95;1.83;;;28.50;99.90;;;;;;5023868;28;20225;-76
2023/01/24 03:41:14;;;;;;;4.78;1.30;;;28.40;99.90;;;;;;5025548;28;20205;-76
2023/01/24 03:43:45;;;;;;;2.50;1.27;;;28.30;99.90;;;;;;5022642;28;20237;-77
2023/01/24 03:46:19;;;;;;;3.55;1.50;;;28.30;99.90;;;;;;5024987;28;20198;-76
2023/01/24 03:48:50;;;;;;;4.22;1.33;;;28.30;99.90;;;;;;5024215;28;20191;-75
2023/01/24 03:54:08;;;;;;;4.13;1.77;;;28.10;99.90;;;;;;5026756;28;21866;-76
2023/01/24 03:56:39;;;;;;;2.47;1.60;;;28.10;99.90;;;;;;5026196;28;20574;-76
2023/01/24 03:59:14;;;;;;;3.05;1.70;;;28.10;99.90;;;;;;5027703;28;20486;-75
2023/01/24 04:01:52;;;;;;;3.85;1.60;;;28.00;99.90;;;;;;5012594;28;20218;-77
2023/01/24 04:04:23;;;;;;;4.22;1.50;;;27.80;99.90;;;;;;5026440;28;20202;-76
2023/01/24 04:06:55;;;;;;;3.58;1.63;;;28.00;99.90;;;;;;5024788;28;20234;-77
2023/01/24 04:09:26;;;;;;;4.57;2.00;;;28.00;99.90;;;;;;5024540;28;20252;-77
2023/01/24 04:11:57;;;;;;;3.28;2.10;;;28.00;99.90;;;;;;5025630;28;20665;-76
2023/01/24 04:14:28;;;;;;;6.97;2.40;;;27.80;99.90;;;;;;5024871;28;20284;-78
2023/01/24 04:17:01;;;;;;;3.00;2.25;;;27.90;99.90;;;;;;5021566;28;20277;-75
2023/01/24 04:19:35;;;;;;;3.72;2.20;;;27.90;99.90;;;;;;5021946;28;20376;-76
2023/01/24 04:22:06;;;;;;;5.13;2.13;;;27.70;99.90;;;;;;5026410;28;20562;-76
2023/01/24 04:24:37;;;;;;;5.68;2.60;;;27.60;99.90;;;;;;5024575;28;20194;-75
2023/01/24 04:27:08;;;;;;;5.15;2.30;;;27.60;99.90;;;;;;5024059;28;20664;-76
2023/01/24 04:29:40;;;;;;;5.85;2.67;;;27.40;99.90;;;;;;5024360;28;20838;-75
2023/01/24 04:32:12;;;;;;;7.32;2.60;;;27.40;99.90;;;;;;5024726;28;20739;-77
2023/01/24 04:34:44;;;;;;;4.85;3.08;;;27.40;99.90;;;;;;5023719;28;20210;-76
2023/01/24 04:37:15;;;;;;;4.10;2.85;;;27.40;99.90;;;;;;5025331;28;20248;-75
2023/01/24 04:39:47;;;;;;;5.78;3.63;;;27.50;99.90;;;;;;5022577;28;20216;-76
2023/01/24 04:42:18;;;;;;;6.43;3.20;;;27.60;99.90;;;;;;5024438;28;20226;-79
2023/01/24 04:44:49;;;;;;;7.10;4.15;;;27.40;99.90;;;;;;5025029;28;21019;-74
2023/01/24 04:47:25;;;;;;;8.07;3.88;;;27.40;99.90;;;;;;5024860;28;20256;-77
2023/01/24 04:49:56;;;;;;;6.22;3.80;;;27.40;99.90;;;;;;5023770;28;20233;-75
2023/01/24 04:52:28;;;;;;;5.45;4.05;;;27.30;99.90;;;;;;5024581;28;20198;-76
2023/01/24 04:54:59;;;;;;;9.57;3.40;;;27.30;99.90;;;;;;5024297;28;20572;-75
2023/01/24 04:57:30;;;;;;;4.35;3.25;;;27.30;99.90;;;;;;5022989;28;20289;-76
2023/01/24 05:00:03;;;;;;;5.05;3.30;;;27.40;99.90;;;;;;5023105;28;20198;-76
2023/01/24 05:05:30;;;;;;;4.80;3.70;;;27.20;99.90;;;;;;5024737;28;20424;-74
2023/01/24 05:08:01;;;;;;;7.97;3.92;;;27.10;99.90;;;;;;5024481;28;20642;-76
2023/01/24 05:10:33;;;;;;;3.90;2.60;;;27.10;99.90;;;;;;5026374;28;20194;-77
2023/01/24 05:13:04;;;;;;;4.22;2.22;;;27.20;99.90;;;;;;5021141;28;20554;-76
2023/01/24 05:15:35;;;;;;;6.75;2.55;;;27.20;99.90;;;;;;5022644;28;20214;-77
2023/01/24 05:18:08;;;;;;;6.32;2.58;;;27.10;99.90;;;;;;5022179;28;20670;-76
2023/01/24 05:20:39;;;;;;;5.70;3.33;;;27.00;99.90;;;;;;5023351;28;20206;-77
2023/01/24 05:23:10;;;;;;;5.35;3.20;;;27.00;99.90;;;;;;5024279;28;20206;-78
2023/01/24 05:25:41;;;;;;;5.00;2.53;;;26.90;99.90;;;;;;5021060;28;20201;-77
2023/01/24 05:28:12;;;;;;;4.45;2.63;;;26.90;99.90;;;;;;5026624;28;20248;-79
2023/01/24 05:30:44;;;;;;;5.80;3.05;;;26.90;99.90;;;;;;5023851;28;20371;-77
2023/01/24 05:33:17;;;;;;;7.13;3.17;;;26.90;99.90;;;;;;5022686;28;20280;-77
2023/01/24 05:35:48;;;;;;;6.70;2.55;;;26.90;99.90;;;;;;5024562;28;20301;-76
2023/01/24 05:38:19;;;;;;;7.15;3.30;;;26.90;99.90;;;;;;5025370;28;20190;-83
2023/01/24 05:41:18;;;;;;;3.80;2.80;;;26.80;99.90;;;;;;5024350;28;20193;-75
2023/01/24 05:43:50;;;;;;;3.20;2.22;;;26.70;99.90;;;;;;5024605;28;20284;-77
2023/01/24 05:46:23;;;;;;;5.47;2.70;;;26.70;99.90;;;;;;5022100;28;20225;-76
2023/01/24 05:48:56;;;;;;;3.72;2.70;;;26.70;99.90;;;;;;5022746;28;20257;-78
2023/01/24 05:51:27;;;;;;;4.03;2.60;;;26.80;99.90;;;;;;5022456;28;20202;-76
2023/01/24 05:53:58;;;;;;;3.83;2.10;;;26.70;99.90;;;;;;5021281;28;20204;-76
2023/01/24 05:56:31;;;;;;;3.72;2.70;;;26.80;99.90;;;;;;5019970;28;20697;-76
2023/01/24 05:59:03;;;;;;;4.90;4.40;;;26.80;99.90;;;;;;5024247;28;20198;-80
2023/01/24 06:01:35;;;;;;;5.75;4.53;;;26.70;99.90;;;;;;5023143;28;20650;-80
2023/01/24 06:04:08;;;;;;;7.05;5.63;;;26.70;99.90;;;;;;5020380;28;20234;-78
2023/01/24 06:06:40;;;;;;;7.47;6.38;;;26.60;99.90;;;;;;5023453;28;20274;-77
2023/01/24 06:09:11;;;;;;;7.55;6.25;;;26.60;99.90;;;;;;5027674;28;20224;-77
2023/01/24 06:11:42;;;;;;;6.93;6.00;;;26.60;99.90;;;;;;5023609;28;20190;-78
2023/01/24 06:14:13;;;;;;;4.97;4.47;;;26.60;99.90;;;;;;5024853;28;20194;-75
2023/01/24 06:16:47;;;;;;;6.57;3.83;;;26.60;99.90;;;;;;5022761;28;20233;-76
2023/01/24 06:19:20;;;;;;;8.50;4.22;;;26.70;99.90;;;;;;5022435;28;20851;-76
2023/01/24 06:21:58;;;;;;;6.07;3.30;;;26.80;99.90;;;;;;5023408;28;20261;-78
2023/01/24 06:24:30;;;;;;;7.38;3.30;;;26.80;99.90;;;;;;5021670;28;20212;-76
2023/01/24 06:27:03;;;;;;;5.28;2.83;;;26.60;99.90;;;;;;5022516;28;20295;-77
2023/01/24 06:29:35;;;;;;;4.13;3.15;;;26.50;99.90;;;;;;5021153;28;20285;-77
2023/01/24 06:32:22;;;;;;;6.85;4.95;;;26.50;99.90;;;;;;5024287;28;20198;-79
2023/01/24 06:35:09;;;;;;;6.45;4.97;;;26.40;99.90;;;;;;5022627;28;20232;-76
2023/01/24 06:37:47;;;;;;;5.45;4.90;;;26.50;99.90;;;;;;5022326;28;20605;-76
2023/01/24 06:40:20;;;;;;;6.97;5.50;;;26.40;99.90;;;;;;5020036;28;20232;-77
2023/01/24 06:42:53;;;;;;;5.05;4.20;;;26.30;99.90;;;;;;5026170;28;20202;-76
2023/01/24 06:45:24;;;;;;;7.10;5.80;;;26.20;99.90;;;;;;5021487;28;20205;-77
2023/01/24 06:47:57;;;;;;;11.57;5.75;;;26.20;99.90;;;;;;5020888;28;20613;-76
2023/01/24 06:50:31;;;;;;;10.57;8.40;;;26.10;99.90;;;;;;5024281;28;20228;-77
2023/01/24 06:53:02;;;;;;;8.02;6.20;;;26.10;99.90;;;;;;5022903;28;20237;-77
2023/01/24 06:55:34;;;;;;;7.03;4.60;;;26.10;99.90;;;;;;5019490;28;20216;-77
2023/01/24 06:58:05;;;;;;;4.85;3.55;;;26.10;99.90;;;;;;5024507;28;20205;-76
2023/01/24 07:00:37;;;;;;;5.10;3.58;;;26.10;99.90;;;;;;5025831;28;20198;-77
2023/01/24 07:03:09;;;;;;;5.65;4.18;;;26.00;99.90;;;;;;5023125;28;20198;-78
2023/01/24 07:05:42;;;;;;;6.78;3.53;;;26.00;99.90;;;;;;5026235;28;20317;-77
2023/01/24 07:08:13;;;;;;;4.20;2.58;;;26.00;99.90;;;;;;5025087;28;20230;-78
2023/01/24 07:10:45;;;;;;;4.85;2.05;;;26.00;99.90;;;;;;5024179;28;20294;-76
2023/01/24 07:13:17;;;;;;;2.88;1.70;;;26.00;99.90;;;;;;5023124;28;20202;-78
2023/01/24 07:15:48;;;;;;;3.20;1.45;;;26.00;99.90;;;;;;5028291;28;20218;-76
2023/01/24 07:18:21;;;;;;;3.00;1.38;;;26.00;99.90;;;;;;5026641;28;20206;-76
2023/01/24 07:20:55;;;;;;;3.03;1.20;;;25.90;99.90;;;;;;5024350;28;20198;-79
2023/01/24 07:23:32;;;;;;;3.78;1.00;;;25.80;99.90;;;;;;5028588;28;20226;-77
2023/01/24 07:26:04;;;;;;;2.20;1.30;;;25.70;99.90;;;;;;5024112;28;20198;-77
2023/01/24 07:28:35;;;;;;;1.25;1.00;;;25.60;99.90;;;;;;5021783;28;20229;-77
2023/01/24 07:31:06;;;;;;;3.15;1.23;;;25.60;99.90;;;;;;5027820;28;20204;-77
2023/01/24 07:33:39;;;;;;;1.55;1.00;;;25.50;99.90;;;;;;5024752;28;20304;-76
2023/01/24 07:36:18;;;;;;;2.95;1.00;;;25.50;99.90;;;;;;5023842;28;20222;-76
2023/01/24 07:38:49;;;;;;;3.17;1.08;;;25.40;99.90;;;;;;5025263;28;20202;-76
2023/01/24 07:41:20;;;;;;;2.33;1.33;;;25.40;99.90;;;;;;5025631;28;20564;-77
2023/01/24 07:43:51;;;;;;;1.80;0.80;;;25.40;99.90;;;;;;5025480;28;20194;-76
2023/01/24 07:46:22;;;;;;;1.25;0.82;;;25.30;99.90;;;;;;5027212;28;20285;-78
2023/01/24 07:48:53;;;;;;;1.10;0.70;;;25.20;99.90;;;;;;5026069;28;20254;-77
2023/01/24 07:51:27;;;;;;;2.42;0.98;;;25.20;99.90;;;;;;5024426;28;20194;-77
2023/01/24 07:54:00;;;;;;;2.05;0.70;;;25.20;99.90;;;;;;5025118;28;20300;-77
2023/01/24 07:56:31;;;;;;;2.63;1.00;;;25.10;99.90;;;;;;5027934;28;20577;-76
2023/01/24 07:59:02;;;;;;;1.98;0.70;;;25.10;99.90;;;;;;5026062;28;20205;-76
2023/01/24 08:01:33;;;;;;;2.78;0.80;;;25.10;99.90;;;;;;5025707;28;20290;-78
2023/01/24 08:04:28;;;;;;;3.42;1.00;;;25.10;99.90;;;;;;5014634;28;20679;-75
2023/01/24 08:07:20;;;;;;;3.30;1.00;;;25.00;99.90;;;;;;5026983;28;20198;-75
2023/01/24 08:09:52;;;;;;;3.90;1.60;;;24.90;99.90;;;;;;5023839;28;21096;-74
2023/01/24 08:12:23;;;;;;;3.42;1.30;;;24.90;99.90;;;;;;5022930;28;20221;-76
2023/01/24 08:14:54;;;;;;;3.80;1.50;;;25.00;99.90;;;;;;5023624;28;20312;-78
2023/01/24 08:17:25;;;;;;;2.28;1.20;;;25.00;99.90;;;;;;5023609;28;20209;-78
2023/01/24 08:19:56;;;;;;;3.33;1.25;;;25.00;99.90;;;;;;5024451;28;20207;-76
2023/01/24 08:22:30;;;;;;;3.30;0.98;;;25.00;99.90;;;;;;5027259;28;20198;-76
2023/01/24 08:25:00;;;;;;;2.65;1.08;;;24.80;99.90;;;;;;5024767;28;20232;-78
2023/01/24 08:27:32;;;;;;;3.55;1.27;;;24.70;99.90;;;;;;5023260;28;20201;-77
2023/01/24 08:30:03;;;;;;;2.53;1.17;;;24.60;99.90;;;;;;5026310;28;20671;-78
2023/01/24 08:32:34;;;;;;;3.65;1.40;;;24.60;99.90;;;;;;5024520;28;20634;-77
2023/01/24 08:35:06;;;;;;;3.33;1.30;;;24.60;99.90;;;;;;5024627;28;20583;-76
2023/01/24 08:37:38;;;;;;;4.13;1.25;;;24.60;99.90;;;;;;5020730;28;20635;-77
2023/01/24 08:40:11;;;;;;;3.80;1.67;;;24.50;99.90;;;;;;5024116;28;20210;-76
2023/01/24 08:42:42;;;;;;;5.22;1.10;;;24.50;99.90;;;;;;5026096;28;20197;-76
2023/01/24 08:45:13;;;;;;;2.42;1.30;;;24.40;99.90;;;;;;5021914;28;20249;-77
2023/01/24 08:47:44;;;;;;;2.10;1.40;;;24.40;99.90;;;;;;5022004;28;20198;-77
2023/01/24 08:50:19;;;;;;;1.92;1.30;;;24.30;99.90;;;;;;5021483;28;20194;-77
2023/01/24 08:52:52;;;;;;;3.03;1.50;;;24.30;99.90;;;;;;5023799;28;20221;-78
2023/01/24 08:55:23;;;;;;;4.80;1.25;;;24.30;99.90;;;;;;5028412;28;20221;-76
2023/01/24 08:57:54;;;;;;;3.88;1.40;;;24.30;99.90;;;;;;5022667;28;20202;-76
2023/01/24 09:00:25;;;;;;;4.40;1.60;;;24.30;99.90;;;;;;5025505;28;20653;-77
2023/01/24 09:02:58;;;;;;;6.03;1.50;;;24.30;99.90;;;;;;5021488;28;20206;-77
2023/01/24 09:05:57;;;;;;;3.88;1.60;;;24.30;99.90;;;;;;5017347;28;20284;-77
2023/01/24 09:08:31;;;;;;;3.28;1.25;;;24.30;99.90;;;;;;5024792;28;20281;-76
2023/01/24 09:11:02;;;;;;;4.72;1.55;;;24.30;99.90;;;;;;5023819;28;20206;-76
2023/01/24 09:13:33;;;;;;;2.15;1.10;;;24.20;99.90;;;;;;5023078;28;20837;-75
2023/01/24 09:16:04;;;;;;;3.47;1.30;;;24.20;99.90;;;;;;5024318;28;20225;-77
2023/01/24 09:18:38;;;;;;;4.68;1.48;;;24.10;99.90;;;;;;5022300;28;20222;-79
2023/01/24 09:21:09;;;;;;;4.43;1.60;;;24.10;99.90;;;;;;5020179;28;20202;-77
2023/01/24 09:23:42;;;;;;;3.30;1.45;;;24.10;99.90;;;;;;5021382;28;20285;-78
2023/01/24 09:26:13;;;;;;;3.30;1.20;;;24.10;99.90;;;;;;5018997;28;20198;-79
2023/01/24 09:28:44;;;;;;;2.28;1.20;;;24.10;99.90;;;;;;5028711;28;20194;-76
2023/01/24 09:31:15;;;;;;;3.13;1.27;;;24.00;99.90;;;;;;5032907;28;20247;-77
2023/01/24 09:33:46;;;;;;;3.40;1.23;;;24.00;99.90;;;;;;5034023;28;20190;-77
2023/01/24 09:36:17;;;;;;;1.85;1.20;;;24.00;99.90;;;;;;5034176;28;20309;-79
2023/01/24 09:38:50;;;;;;;3.13;1.17;;;24.00;99.90;;;;;;5033652;28;20199;-77
2023/01/24 09:41:31;;;;;;;2.85;1.10;;;24.00;99.90;;;;;;5033922;28;20700;-76
2023/01/24 09:44:07;;;;;;;5.38;1.00;;;24.00;99.90;;;;;;5034185;28;20200;-76
2023/01/24 09:46:44;;;;;;;4.53;1.00;;;24.00;99.90;;;;;;5033808;28;20669;-77
2023/01/24 09:49:23;;;;;;;5.30;1.25;;;24.00;99.90;;;;;;5033749;28;20197;-76
2023/01/24 09:51:55;;;;;;;4.03;1.15;;;24.00;99.90;;;;;;5033777;28;20233;-78
2023/01/24 09:54:36;;;;;;;5.35;1.20;;;24.00;99.90;;;;;;5033256;28;20583;-76
2023/01/24 09:57:14;;;;;;;3.20;1.13;;;24.00;99.90;;;;;;5033510;28;20769;-77
2023/01/24 09:59:50;;;;;;;3.08;1.38;;;24.00;99.90;;;;;;5033726;28;20680;-78
2023/01/24 10:02:24;;;;;;;2.75;0.98;;;24.00;99.90;;;;;;5033683;28;20193;-77
2023/01/24 10:04:55;;;;;;;5.57;1.25;;;24.00;99.90;;;;;;5033190;28;20225;-77
2023/01/24 10:07:55;;;;;;;6.13;1.20;;;24.00;99.90;;;;;;5033255;28;20199;-76
2023/01/24 10:10:47;;;;;;;2.53;1.00;;;24.00;99.90;;;;;;5033542;28;20277;-77
2023/01/24 10:13:58;;;;;;;4.05;1.23;;;23.90;99.90;;;;;;5033493;28;20191;-77
2023/01/24 10:16:55;;;;;;;2.90;1.00;;;23.90;99.90;;;;;;4972474;28;20767;-77
2023/01/24 10:19:44;;;;;;;4.28;1.00;;;23.90;99.90;;;;;;4972585;28;20192;-77
2023/01/24 10:22:39;;;;;;;6.88;1.27;;;23.80;99.90;;;;;;5021467;28;20316;-77
2023/01/24 10:25:19;;;;;;;4.47;1.27;;;23.80;99.90;;;;;;5033238;28;20281;-77
2023/01/24 10:27:55;;;;;;;4.65;1.30;;;23.80;99.90;;;;;;5033320;28;20244;-77
2023/01/24 10:30:32;;;;;;;4.30;1.27;;;23.70;99.90;;;;;;5031242;28;20233;-76
2023/01/24 10:33:07;;;;;;;6.43;1.58;;;23.70;99.90;;;;;;5028965;28;20193;-77
2023/01/24 10:35:47;;;;;;;4.10;1.30;;;23.70;99.90;;;;;;5025259;28;20644;-77
2023/01/24 10:38:20;;;;;;;6.57;1.50;;;23.60;99.90;;;;;;5030047;28;20220;-76
2023/01/24 10:40:55;;;;;;;5.47;1.50;;;23.60;99.90;;;;;;5037643;28;20619;-76
2023/01/24 10:43:32;;;;;;;7.97;1.70;;;23.60;99.90;;;;;;5038961;28;20198;-76
2023/01/24 10:46:22;;;;;;;8.88;2.60;;;23.60;99.90;;;;;;5039848;28;20641;-74
2023/01/24 10:48:56;;;;;;;6.80;2.60;;;23.40;99.90;;;;;;5039652;28;20544;-74
2023/01/24 10:51:27;;;;;;;6.45;2.88;;;23.20;99.90;;;;;;5039340;28;20194;-75
2023/01/24 10:54:04;;;;;;;4.53;2.30;;;23.10;99.90;;;;;;5039854;28;20190;-75
2023/01/24 10:56:43;;;;;;;6.15;2.78;;;22.80;99.90;;;;;;5039432;28;20312;-74
2023/01/24 10:59:17;;;;;;;5.03;2.80;;;22.60;99.90;;;;;;5039589;28;20190;-76
2023/01/24 11:01:49;;;;;;;5.10;2.92;;;22.40;99.90;;;;;;5039395;28;20240;-75
2023/01/24 11:04:25;;;;;;;5.95;3.00;;;22.20;99.90;;;;;;5039471;28;20201;-75
2023/01/24 11:06:56;;;;;;;3.92;2.65;;;22.00;99.90;;;;;;5039146;28;20269;-76
2023/01/24 11:09:34;;;;;;;3.78;2.83;;;21.90;99.90;;;;;;5039389;28;20197;-75
2023/01/24 11:12:05;;;;;;;6.70;3.20;;;21.80;99.90;;;;;;5039472;28;20186;-75
2023/01/24 11:14:39;;;;;;;5.05;3.38;;;21.70;99.90;;;;;;5039359;28;20186;-75
2023/01/24 11:17:33;;;;;;;6.22;3.30;;;21.80;99.90;;;;;;5039441;28;20710;-75
2023/01/24 11:20:19;;;;;;;4.20;2.92;;;21.80;99.90;;;;;;5039031;28;20194;-75
2023/01/24 11:22:55;;;;;;;4.70;2.97;;;21.80;99.90;;;;;;5039375;28;20186;-75
2023/01/24 11:25:26;;;;;;;4.72;3.00;;;21.80;99.90;;;;;;5039131;28;20229;-75
2023/01/24 11:28:00;;;;;;;4.30;3.00;;;21.70;99.90;;;;;;5039349;28;20285;-74
2023/01/24 11:30:39;;;;;;;4.22;2.90;;;21.70;99.90;;;;;;5039192;28;20307;-75
2023/01/24 11:33:28;;;;;;;5.65;2.85;;;21.70;99.90;;;;;;5039253;28;20293;-75
2023/01/24 11:36:06;;;;;;;8.35;3.50;;;21.70;99.90;;;;;;5038897;28;22153;-74
2023/01/24 11:38:39;;;;;;;3.92;3.30;;;21.80;99.90;;;;;;5039367;28;20297;-74
2023/01/24 11:41:15;;;;;;;4.95;3.08;;;21.80;99.90;;;;;;5039205;28;20186;-75
2023/01/24 11:44:09;;;;;;;4.50;2.85;;;21.70;99.90;;;;;;5038993;28;20243;-75
2023/01/24 11:46:52;;;;;;;4.35;2.95;;;21.70;99.90;;;;;;5039118;28;20671;-75
2023/01/24 11:49:48;;;;;;;3.83;2.42;;;21.60;99.90;;;;;;5037803;28;20198;-75
2023/01/24 11:52:44;;;;;;;4.40;2.50;;;21.40;99.90;;;;;;5034371;28;20242;-75
2023/01/24 11:55:28;;;;;;;5.43;2.30;;;21.30;99.90;;;;;;5035884;28;20221;-75
2023/01/24 11:58:10;;;;;;;4.20;2.40;;;21.20;99.90;;;;;;5035847;28;20218;-75
2023/01/24 12:00:48;;;;;;;2.85;2.00;;;21.10;99.90;;;;;;5035821;28;20560;-76
2023/01/24 12:03:49;;;;;;;3.63;2.20;;;21.00;99.90;;;;;;5035874;28;20559;-75
2023/01/24 12:06:28;;;;;;;4.20;2.20;;;20.90;99.90;;;;;;5035712;28;20240;-76
2023/01/24 12:09:11;;;;;;;6.15;2.58;;;20.90;99.90;;;;;;5035707;28;20186;-75
2023/01/24 12:11:46;;;;;;;3.28;2.50;;;20.90;99.90;;;;;;5035843;28;20197;-75
2023/01/24 12:14:38;;;;;;;4.68;2.17;;;20.80;99.90;;;;;;5035499;28;20551;-76
2023/01/24 12:17:25;;;;;;;3.55;2.17;;;20.80;99.90;;;;;;5035423;28;20218;-76
2023/01/24 12:20:17;;;;;;;7.03;2.22;;;20.80;99.90;;;;;;5035212;28;20560;-76
2023/01/24 12:22:49;;;;;;;3.80;2.13;;;20.80;99.90;;;;;;5035376;28;20222;-76
2023/01/24 12:25:26;;;;;;;3.92;2.30;;;20.70;99.90;;;;;;5035293;28;20286;-76
2023/01/24 12:28:01;;;;;;;4.70;1.90;;;20.80;99.90;;;;;;5035288;28;20233;-76
2023/01/24 12:30:36;;;;;;;3.70;2.20;;;20.80;99.90;;;;;;5035223;28;20229;-76
2023/01/24 12:33:17;;;;;;;5.35;2.30;;;20.80;99.90;;;;;;5035091;28;20196;-75
2023/01/24 12:35:53;;;;;;;4.70;2.17;;;20.80;99.90;;;;;;5035013;28;20281;-76
2023/01/24 12:38:29;;;;;;;2.13;1.90;;;20.80;99.90;;;;;;5035166;28;20194;-76
2023/01/24 12:41:08;;;;;;;3.88;2.30;;;20.80;99.90;;;;;;5035224;28;20281;-76
2023/01/24 12:43:49;;;;;;;4.75;2.38;;;20.90;99.90;;;;;;5033779;28;20186;-76
2023/01/24 12:46:27;;;;;;;5.97;2.30;;;20.80;99.90;;;;;;5035017;28;20531;-75
2023/01/24 12:49:05;;;;;;;4.05;2.15;;;20.80;99.90;;;;;;5034951;28;20206;-76
2023/01/24 12:51:45;;;;;;;3.35;1.90;;;20.60;99.90;;;;;;5034858;28;20281;-76
2023/01/24 12:54:21;;;;;;;3.08;1.85;;;20.50;99.90;;;;;;5034839;28;20192;-76
2023/01/24 12:56:59;;;;;;;5.03;1.88;;;20.40;99.90;;;;;;5034764;28;20308;-76
2023/01/24 12:59:33;;;;;;;4.22;2.08;;;20.30;99.90;;;;;;5034611;28;20698;-76
2023/01/24 13:02:38;;;;;;;4.00;2.10;;;20.30;99.90;;;;;;5033525;28;20225;-76
2023/01/24 13:05:30;;;;;;;4.95;1.98;;;20.40;99.90;;;;;;5034513;28;20263;-76
2023/01/24 13:08:17;;;;;;;3.95;2.05;;;20.30;99.90;;;;;;5034571;28;20190;-76
2023/01/24 13:10:58;;;;;;;3.22;2.10;;;20.40;99.90;;;;;;5035066;28;20195;-76
2023/01/24 13:13:34;;;;;;;2.47;2.20;;;20.30;99.90;;;;;;5034698;28;20209;-76
2023/01/24 13:16:24;;;;;;;4.30;2.20;;;20.30;99.90;;;;;;5034365;28;20201;-76
2023/01/24 13:19:03;;;;;;;4.43;2.47;;;20.30;99.90;;;;;;5034600;28;20194;-76
2023/01/24 13:21:45;;;;;;;3.33;2.30;;;20.30;99.90;;;;;;5034455;28;20196;-76
2023/01/24 13:24:52;;;;;;;5.60;2.53;;;20.30;99.90;;;;;;5034388;28;20286;-76
2023/01/24 13:27:36;;;;;;;3.90;2.30;;;20.30;99.90;;;;;;5010924;28;20233;-76
2023/01/24 13:30:25;;;;;;;4.97;2.40;;;20.30;99.90;;;;;;5034276;28;20221;-76
2023/01/24 13:33:00;;;;;;;2.80;2.40;;;20.30;99.90;;;;;;5034556;28;20627;-76
2023/01/24 13:35:32;;;;;;;4.55;3.00;;;20.40;99.90;;;;;;5034159;28;20209;-76
2023/01/24 13:38:07;;;;;;;3.95;2.85;;;20.40;99.90;;;;;;5034186;28;20222;-76
2023/01/24 13:40:39;;;;;;;3.58;2.97;;;20.40;99.90;;;;;;5034110;28;20194;-77
2023/01/24 13:43:49;;;;;;;6.78;2.70;;;20.40;99.90;;;;;;5034044;28;20273;-77
2023/01/24 13:46:20;;;;;;;4.53;2.55;;;20.40;99.90;;;;;;5033867;28;20194;-76
2023/01/24 13:49:00;;;;;;;3.60;2.60;;;20.40;99.90;;;;;;5034028;28;20190;-76
2023/01/24 13:51:36;;;;;;;4.55;2.90;;;20.40;99.90;;;;;;5033938;28;20191;-76
2023/01/24 13:54:16;;;;;;;4.28;2.53;;;20.40;99.90;;;;;;5033879;28;20656;-76
2023/01/24 13:57:19;;;;;;;5.72;2.60;;;20.30;99.90;;;;;;5033847;28;20312;-76
2023/01/24 14:00:20;;;;;;;3.67;2.72;;;20.30;99.90;;;;;;5033666;28;20220;-76
2023/01/24 14:03:19;;;;;;;4.15;2.65;;;20.30;99.90;;;;;;5032383;28;20206;-76
2023/01/24 14:05:57;;;;;;;4.05;2.55;;;20.20;99.90;;;;;;5033468;28;20233;-76
2023/01/24 14:09:08;;;;;;;2.95;2.28;;;20.20;99.90;;;;;;5033686;28;20225;-76
2023/01/24 14:11:58;;;;;;;4.40;2.47;;;20.10;99.90;;;;;;5024221;28;20565;-76